Terminal Aerodrome Forecast
Issued by NWS

Home | Current Version | Previous Version | Text Only | Print | Product List | Glossary On
Versions: 1 2 3 4 5 6 7 8 9 10 11 12 13 14 15 16 17 18 19 20 21
304
FTUS46 KMTR 292356
TAFSFO
TAF
KSFO 292356Z 3000/3106 30018G25KT P6SM FEW008
     FM300400 29011KT P6SM FEW008
     FM300600 30010KT P6SM FEW005
     FM302100 28015G22KT P6SM FEW008 SCT100
     FM310400 28012KT 6SM HZ FEW008 SCT100=

USA.gov is the U.S. government's official web portal to all federal, state and local government web resources and services.